PWSweather.com
Personal Weather Stations
Station Observations
MUNLOCHY
Munlochy Mill, MunlochyGB IV8 8NL

Munlochy MillMunlochyGB IV8 8NL

Lat: 57.548611, Lon: -4.2625966

Elevation: 62.336

Station Type: Oregon Scientific WMR200

http://www.millbankhouse.co.uk

Latest ConditionsUpdated 4:20:05 AM GMT Friday, Dec 14, 2018
Currently Today's Max Today's Min Today's Average
Temperature 33.9°F1.1°C 39.2°F4.0°C 33.4°F0.8°C 35.9°F2.2°C
Dew Point 29.3°F-1.5°C 30.6°F-0.8°C 28.8°F-1.8°C 30.0°F-1.1°C
Winds 2.3 mph WNW3.7 kmh WNW 5.8 mph -9.3 kmh - - 2.6 mph 4.2 kmh
Wind Gusts 4.6 mph7.4 kmh 10.4 mph16.7 kmh - -
Humidity 83% 85% 71% 79%
Pressure 30.12 in1020.0 mb 30.12 in1020.0 mb 30.11 in1019.6 mb -
Hour Temp Dew Point Humidity Winds Wind Gusts Pressure Precip Precip Rate Daily Precip Total
04:20 AM 33.9°F1.1°C 29.3°F-1.5°C 83% 2.3 mph WNW3.7 kmh WNW 4.6 mph7.4 kmh 30.12 in1020.0 mb - 0.00 in0.0 mm 0.00 in0.0 mm
04:15 AM 33.4°F0.8°C 28.8°F-1.8°C 83% 2.3 mph NW3.7 kmh NW 5.8 mph9.3 kmh 30.12 in1020.0 mb - 0.00 in0.0 mm 0.00 in0.0 mm
04:10 AM 33.5°F0.8°C 29.2°F-1.6°C 84% 2.3 mph WNW3.7 kmh WNW 5.8 mph9.3 kmh 30.12 in1020.0 mb - 0.00 in0.0 mm 0.00 in0.0 mm
04:00 AM 33.8°F1.0°C 29.5°F-1.4°C 84% 2.3 mph SE3.7 kmh SE 4.6 mph7.4 kmh 30.12 in1020.0 mb - 0.00 in0.0 mm 0.00 in0.0 mm
03:55 AM 33.6°F0.9°C 29.3°F-1.5°C 84% 2.3 mph E3.7 kmh E 4.6 mph7.4 kmh 30.12 in1020.0 mb - 0.00 in0.0 mm 0.00 in0.0 mm
03:50 AM 33.6°F0.9°C 29.6°F-1.3°C 85% 2.3 mph ENE3.7 kmh ENE 4.6 mph7.4 kmh 30.12 in1020.0 mb - 0.00 in0.0 mm 0.00 in0.0 mm
03:45 AM 33.7°F0.9°C 29.7°F-1.3°C 85% 2.3 mph WNW3.7 kmh WNW 2.3 mph3.7 kmh 30.12 in1020.0 mb - 0.00 in0.0 mm 0.00 in0.0 mm
03:40 AM 33.9°F1.1°C 29.9°F-1.2°C 85% 2.3 mph WNW3.7 kmh WNW 2.3 mph3.7 kmh 30.12 in1020.0 mb - 0.00 in0.0 mm 0.00 in0.0 mm
03:35 AM 34.0°F1.1°C 29.9°F-1.2°C 85% 2.3 mph NNW3.7 kmh NNW 3.5 mph5.6 kmh 30.12 in1020.0 mb - 0.00 in0.0 mm 0.00 in0.0 mm
03:30 AM 34.0°F1.1°C 29.7°F-1.3°C 84% 1.2 mph NE1.9 kmh NE 3.5 mph5.6 kmh 30.12 in1020.0 mb - 0.00 in0.0 mm 0.00 in0.0 mm
03:25 AM 34.1°F1.2°C 29.8°F-1.2°C 84% 1.2 mph N1.9 kmh N 3.5 mph5.6 kmh 30.12 in1020.0 mb - 0.00 in0.0 mm 0.00 in0.0 mm
03:20 AM 34.4°F1.3°C 29.8°F-1.2°C 83% 2.3 mph NNE3.7 kmh NNE 3.5 mph5.6 kmh 30.12 in1020.0 mb - 0.00 in0.0 mm 0.00 in0.0 mm
03:15 AM 34.7°F1.5°C 29.8°F-1.2°C 82% 2.3 mph ENE3.7 kmh ENE 3.5 mph5.6 kmh 30.12 in1020.0 mb - 0.00 in0.0 mm 0.00 in0.0 mm
03:10 AM 34.9°F1.6°C 29.9°F-1.2°C 82% 2.3 mph NNE3.7 kmh NNE 3.5 mph5.6 kmh 30.12 in1020.0 mb - 0.00 in0.0 mm 0.00 in0.0 mm
03:00 AM 35.0°F1.7°C 30.0°F-1.1°C 82% 1.2 mph NNE1.9 kmh NNE 3.5 mph5.6 kmh 30.12 in1020.0 mb - 0.00 in0.0 mm 0.00 in0.0 mm
02:50 AM 35.2°F1.8°C 30.0°F-1.1°C 81% 2.3 mph NNW3.7 kmh NNW 2.3 mph3.7 kmh 30.12 in1020.0 mb - 0.00 in0.0 mm 0.00 in0.0 mm
02:45 AM 35.2°F1.8°C 29.9°F-1.2°C 81% 3.5 mph NNW5.6 kmh NNW 3.5 mph5.6 kmh 30.12 in1020.0 mb - 0.00 in0.0 mm 0.00 in0.0 mm
02:40 AM 34.5°F1.4°C 29.6°F-1.3°C 82% 4.6 mph N7.4 kmh N 3.5 mph5.6 kmh 30.11 in1019.6 mb - 0.00 in0.0 mm 0.00 in0.0 mm
02:35 AM 34.6°F1.4°C 29.7°F-1.3°C 82% 3.5 mph NE5.6 kmh NE 5.8 mph9.3 kmh 30.11 in1019.6 mb - 0.00 in0.0 mm 0.00 in0.0 mm
02:30 AM 35.1°F1.7°C 29.9°F-1.2°C 81% 2.3 mph ESE3.7 kmh ESE 5.8 mph9.3 kmh 30.12 in1020.0 mb - 0.00 in0.0 mm 0.00 in0.0 mm
02:25 AM 35.4°F1.9°C 30.2°F-1.0°C 81% 2.3 mph E3.7 kmh E 4.6 mph7.4 kmh 30.12 in1020.0 mb - 0.00 in0.0 mm 0.00 in0.0 mm
02:20 AM 35.7°F2.1°C 30.4°F-0.9°C 81% 3.5 mph WSW5.6 kmh WSW 4.6 mph7.4 kmh 30.12 in1020.0 mb - 0.00 in0.0 mm 0.00 in0.0 mm
02:10 AM 36.0°F2.2°C 30.4°F-0.9°C 80% 2.3 mph NE3.7 kmh NE 4.6 mph7.4 kmh 30.11 in1019.6 mb - 0.00 in0.0 mm 0.00 in0.0 mm
02:00 AM 36.1°F2.3°C 30.2°F-1.0°C 79% 1.2 mph ESE1.9 kmh ESE 3.5 mph5.6 kmh 30.11 in1019.6 mb - 0.00 in0.0 mm 0.00 in0.0 mm
01:55 AM 36.5°F2.5°C 30.3°F-0.9°C 78% 1.2 mph ESE1.9 kmh ESE 2.3 mph3.7 kmh 30.11 in1019.6 mb - 0.00 in0.0 mm 0.00 in0.0 mm
01:50 AM 36.8°F2.7°C 30.2°F-1.0°C 77% 2.3 mph SE3.7 kmh SE 2.3 mph3.7 kmh 30.11 in1019.6 mb - 0.00 in0.0 mm 0.00 in0.0 mm
01:45 AM 37.0°F2.8°C 30.4°F-0.9°C 77% 2.3 mph S3.7 kmh S 3.5 mph5.6 kmh 30.11 in1019.6 mb - 0.00 in0.0 mm 0.00 in0.0 mm
01:40 AM 37.1°F2.8°C 30.3°F-0.9°C 76% 2.3 mph SW3.7 kmh SW 3.5 mph5.6 kmh 30.11 in1019.6 mb - 0.00 in0.0 mm 0.00 in0.0 mm
01:35 AM 37.4°F3.0°C 30.2°F-1.0°C 75% 2.3 mph WNW3.7 kmh WNW 4.6 mph7.4 kmh 30.11 in1019.6 mb - 0.00 in0.0 mm 0.00 in0.0 mm
01:30 AM 37.7°F3.2°C 30.1°F-1.1°C 74% 1.2 mph E1.9 kmh E 4.6 mph7.4 kmh 30.11 in1019.6 mb - 0.00 in0.0 mm 0.00 in0.0 mm
01:25 AM 37.9°F3.3°C 30.4°F-0.9°C 74% 2.3 mph SE3.7 kmh SE 3.5 mph5.6 kmh 30.11 in1019.6 mb - 0.00 in0.0 mm 0.00 in0.0 mm
01:20 AM 38.3°F3.5°C 30.4°F-0.9°C 73% 2.3 mph SE3.7 kmh SE 2.3 mph3.7 kmh 30.11 in1019.6 mb - 0.00 in0.0 mm 0.00 in0.0 mm
01:15 AM 38.7°F3.7°C 30.4°F-0.9°C 72% 3.5 mph SE5.6 kmh SE 4.6 mph7.4 kmh 30.11 in1019.6 mb - 0.00 in0.0 mm 0.00 in0.0 mm
01:10 AM 39.0°F3.9°C 30.3°F-0.9°C 71% 4.6 mph SE7.4 kmh SE 5.8 mph9.3 kmh 30.11 in1019.6 mb - 0.00 in0.0 mm 0.00 in0.0 mm
01:00 AM 39.2°F4.0°C 30.6°F-0.8°C 71% 5.8 mph SE9.3 kmh SE 9.2 mph14.8 kmh 30.11 in1019.6 mb - 0.00 in0.0 mm 0.00 in0.0 mm
12:55 AM 39.0°F3.9°C 30.4°F-0.9°C 71% 5.8 mph SE9.3 kmh SE 9.2 mph14.8 kmh 30.11 in1019.6 mb - 0.00 in0.0 mm 0.00 in0.0 mm
12:50 AM 38.7°F3.7°C 30.4°F-0.9°C 72% 5.8 mph SE9.3 kmh SE 10.4 mph16.7 kmh 30.11 in1019.6 mb - 0.00 in0.0 mm 0.00 in0.0 mm
12:45 AM 38.3°F3.5°C 30.4°F-0.9°C 73% 4.6 mph SE7.4 kmh SE 10.4 mph16.7 kmh 30.11 in1019.6 mb - 0.00 in0.0 mm 0.00 in0.0 mm
12:40 AM 37.2°F2.9°C 30.3°F-0.9°C 76% 3.5 mph SE5.6 kmh SE 10.4 mph16.7 kmh 30.12 in1020.0 mb - 0.00 in0.0 mm 0.00 in0.0 mm
12:35 AM 36.1°F2.3°C 29.9°F-1.2°C 78% 2.3 mph SSE3.7 kmh SSE 6.9 mph11.1 kmh 30.12 in1020.0 mb - 0.00 in0.0 mm 0.00 in0.0 mm
12:30 AM 35.9°F2.2°C 30.0°F-1.1°C 79% 1.2 mph SE1.9 kmh SE 6.9 mph11.1 kmh 30.12 in1020.0 mb - 0.00 in0.0 mm 0.00 in0.0 mm
12:25 AM 36.0°F2.2°C 30.2°F-1.0°C 79% 1.2 mph WSW1.9 kmh WSW 4.6 mph7.4 kmh 30.12 in1020.0 mb - 0.00 in0.0 mm 0.00 in0.0 mm
12:20 AM 36.2°F2.3°C 30.3°F-0.9°C 79% 2.3 mph W3.7 kmh W 2.3 mph3.7 kmh 30.12 in1020.0 mb - 0.00 in0.0 mm 0.00 in0.0 mm
12:15 AM 36.2°F2.3°C 30.0°F-1.1°C 78% 2.3 mph SW3.7 kmh SW 2.3 mph3.7 kmh 30.12 in1020.0 mb - 0.00 in0.0 mm 0.00 in0.0 mm
12:10 AM 36.1°F2.3°C 29.9°F-1.2°C 78% 2.3 mph SW3.7 kmh SW 2.3 mph3.7 kmh 30.12 in1020.0 mb - 0.00 in0.0 mm 0.00 in0.0 mm
12:00 AM 36.3°F2.4°C 29.8°F-1.2°C 77% 3.5 mph WSW5.6 kmh WSW 4.6 mph7.4 kmh 30.12 in1020.0 mb - 0.00 in0.0 mm 0.00 in0.0 mm